Time;durP1;ratioP1;P1;durP2;ratioP2;P2;SDS_P1;SDS_P2;PMS_P1;PMS_P2;Temp;Humidity;BMP_temperature;BMP_pressure;BME280_temperature;BME280_humidity;BME280_pressure;Samples;Min_cycle;Max_cycle;Signal;HPM_P1;HPM_P2
2022/04/21 00:01:38;;;;;;;;;7.75;7.75;;;;;13.40;76.11;100648.28;6213187;22;45149;-84
2022/04/21 00:04:04;;;;;;;;;7.25;6.00;;;;;13.42;79.52;100650.81;6213697;22;45334;-81
2022/04/21 00:06:29;;;;;;;;;9.00;7.25;;;;;13.42;76.89;100648.16;6186193;22;45244;-83
2022/04/21 00:08:54;;;;;;;;;10.00;7.25;;;;;13.42;79.05;100637.47;6212910;22;45179;-84
2022/04/21 00:11:21;;;;;;;;;9.00;7.50;;;;;13.39;78.98;100643.88;6186498;22;44939;-84
2022/04/21 00:13:46;;;;;;;;;7.50;7.50;;;;;13.36;78.49;100629.00;6215326;22;44764;-83
2022/04/21 00:16:12;;;;;;;;;9.00;9.00;;;;;13.37;79.36;100629.84;6221209;22;45495;-84
2022/04/21 00:18:38;;;;;;;;;9.00;9.00;;;;;13.37;78.58;100627.16;6223125;22;44842;-84
2022/04/21 00:21:04;;;;;;;;;1.50;0.50;;;;;13.38;77.57;100628.84;6196314;22;44818;-84
2022/04/21 00:23:30;;;;;;;;;7.50;7.50;;;;;13.39;79.95;100619.88;6193335;22;45311;-82
2022/04/21 00:25:59;;;;;;;;;10.75;9.50;;;;;13.40;80.53;100626.94;6213946;22;45253;-84
2022/04/21 00:28:25;;;;;;;;;12.50;8.25;;;;;13.37;77.06;100614.66;6213963;22;45352;-84
2022/04/21 00:30:51;;;;;;;;;7.80;7.40;;;;;13.35;78.44;100615.78;6186813;22;45351;-83
2022/04/21 00:33:17;;;;;;;;;10.00;8.25;;;;;13.33;78.01;100612.38;6215101;22;44745;-82
2022/04/21 00:35:42;;;;;;;;;11.00;9.75;;;;;13.34;75.76;100614.06;6188639;22;45276;-84
2022/04/21 00:38:08;;;;;;;;;4.00;3.25;;;;;13.33;79.82;100613.22;6188408;22;47070;-82
2022/04/21 00:40:33;;;;;;;;;8.75;6.75;;;;;13.29;78.29;100610.91;6188162;22;45361;-83
2022/04/21 00:43:00;;;;;;;;;9.00;9.00;;;;;13.26;77.51;100613.84;6214796;22;45255;-82
2022/04/21 00:45:27;;;;;;;;;8.00;8.00;;;;;13.25;77.01;100609.50;6187876;22;45339;-83
2022/04/21 00:47:58;;;;;;;;;7.50;7.50;;;;;13.26;78.90;100605.84;6190627;22;46625;-83
2022/04/21 00:50:27;;;;;;;;;11.25;10.00;;;;;13.21;78.05;100602.66;6215116;22;45248;-82
2022/04/21 00:52:54;;;;;;;;;10.50;9.25;;;;;13.18;79.48;100603.75;6186666;22;45305;-83
2022/04/21 00:55:20;;;;;;;;;9.50;9.50;;;;;13.12;80.31;100604.25;6185341;22;45339;-83
2022/04/21 00:57:47;;;;;;;;;8.25;8.25;;;;;13.11;79.54;100607.88;6185743;22;47096;-83
2022/04/21 01:00:14;;;;;;;;;10.50;10.00;;;;;13.07;79.66;100604.59;6212959;22;45404;-83
2022/04/21 01:02:46;;;;;;;;;10.00;7.75;;;;;13.03;80.60;100597.81;6186025;22;44791;-82
2022/04/21 01:05:16;;;;;;;;;9.75;8.75;;;;;12.99;80.61;100598.19;6186142;22;45545;-81
2022/04/21 01:07:41;;;;;;;;;7.75;7.75;;;;;12.96;80.02;100587.75;6210076;22;45539;-82
2022/04/21 01:10:08;;;;;;;;;9.75;9.75;;;;;12.92;78.76;100589.00;6185404;22;44808;-83
2022/04/21 01:12:34;;;;;;;;;16.25;10.75;;;;;12.91;79.22;100589.94;6186762;22;44751;-82
2022/04/21 01:14:59;;;;;;;;;14.00;9.50;;;;;12.89;80.03;100583.88;6217713;22;45115;-82
2022/04/21 01:17:37;;;;;;;;;9.50;9.50;;;;;12.87;79.81;100586.69;6219182;22;45195;-83
2022/04/21 01:20:06;;;;;;;;;11.75;9.75;;;;;12.85;80.07;100583.28;6189617;22;45330;-83
2022/04/21 01:22:32;;;;;;;;;11.75;10.00;;;;;12.80;81.44;100574.78;6190895;22;45298;-81
2022/04/21 01:24:58;;;;;;;;;10.25;10.25;;;;;12.77;80.45;100580.38;6194301;22;44911;-83
2022/04/21 01:27:27;;;;;;;;;12.25;10.25;;;;;12.76;77.42;100579.50;6192023;22;46444;-83
2022/04/21 01:29:53;;;;;;;;;11.25;10.50;;;;;12.74;79.96;100575.28;6216621;22;44750;-83
2022/04/21 01:32:19;;;;;;;;;10.25;9.50;;;;;12.72;81.05;100583.41;6215969;22;45280;-82
2022/04/21 01:34:44;;;;;;;;;10.00;10.00;;;;;12.71;82.34;100586.16;6212943;22;44984;-82
2022/04/21 01:42:58;;;;;;;;;8.25;8.25;;;;;12.58;82.77;100576.47;6073360;23;44835;-83
2022/04/21 01:45:23;;;;;;;;;9.25;7.25;;;;;12.58;82.16;100570.31;6095392;23;44752;-81
2022/04/21 01:47:48;;;;;;;;;12.25;12.25;;;;;12.55;81.91;100573.19;6093991;23;44851;-83
2022/04/21 01:50:14;;;;;;;;;9.75;9.75;;;;;12.50;80.25;100576.22;6094929;23;44755;-84
2022/04/21 01:52:39;;;;;;;;;8.00;8.00;;;;;12.50;82.87;100560.22;6096572;23;44694;-82
2022/04/21 01:55:06;;;;;;;;;10.25;8.00;;;;;12.49;83.49;100563.03;6099425;23;45329;-82
2022/04/21 01:57:34;;;;;;;;;8.75;7.75;;;;;12.45;82.93;100564.22;6097804;23;46834;-83
2022/04/21 01:59:59;;;;;;;;;8.50;8.50;;;;;12.41;82.68;100563.59;6096144;23;44729;-84
2022/04/21 02:02:25;;;;;;;;;11.50;10.25;;;;;12.37;84.01;100556.81;6097881;23;45258;-82
2022/04/21 02:04:50;;;;;;;;;10.75;9.00;;;;;12.34;80.13;100559.75;6096960;23;45678;-83
2022/04/21 02:07:16;;;;;;;;;8.75;8.75;;;;;12.32;82.42;100548.34;6095730;23;46346;-81
2022/04/21 02:09:42;;;;;;;;;11.50;9.00;;;;;12.28;82.97;100557.53;6092533;23;45361;-83
2022/04/21 02:12:07;;;;;;;;;9.00;9.00;;;;;12.24;84.60;100559.59;6184916;22;45360;-81
2022/04/21 02:14:33;;;;;;;;;6.00;6.00;;;;;12.19;84.74;100553.78;6217871;22;45220;-81
2022/04/21 02:16:59;;;;;;;;;7.25;7.25;;;;;12.14;79.92;100555.94;6190023;22;45398;-82
2022/04/21 02:19:25;;;;;;;;;10.00;9.00;;;;;12.12;81.47;100543.69;6188843;22;44713;-82
2022/04/21 02:21:50;;;;;;;;;11.50;8.25;;;;;12.09;83.42;100544.78;6215620;22;45380;-82
2022/04/21 02:24:15;;;;;;;;;14.75;10.25;;;;;12.07;82.33;100544.03;6189853;22;45292;-83
2022/04/21 02:26:41;;;;;;;;;8.25;8.25;;;;;12.06;85.36;100545.03;6222353;22;45040;-82
2022/04/21 02:29:06;;;;;;;;;10.25;9.50;;;;;12.03;85.42;100534.59;6198090;22;45123;-83
2022/04/21 02:31:31;;;;;;;;;9.50;9.50;;;;;12.00;84.75;100527.69;6219952;22;45331;-83
2022/04/21 02:33:57;;;;;;;;;10.25;9.00;;;;;12.00;83.78;100524.19;6190757;22;44942;-81
2022/04/21 02:36:22;;;;;;;;;10.00;10.00;;;;;11.94;83.94;100524.63;6220562;22;45145;-81
2022/04/21 02:38:47;;;;;;;;;11.50;9.00;;;;;11.93;81.58;100521.13;6215724;22;44700;-81
2022/04/21 02:41:13;;;;;;;;;11.75;10.00;;;;;11.90;83.45;100516.06;6215540;22;45258;-82
2022/04/21 02:43:38;;;;;;;;;11.25;8.25;;;;;11.87;80.92;100521.59;6222298;22;44784;-81
2022/04/21 02:46:04;;;;;;;;;7.75;7.75;;;;;11.87;83.10;100526.09;6189115;22;45172;-81
2022/04/21 02:48:29;;;;;;;;;10.75;10.75;;;;;11.83;83.56;100520.97;6212875;22;45186;-82
2022/04/21 02:50:55;;;;;;;;;11.00;9.50;;;;;11.82;83.45;100523.78;6186466;22;45363;-82
2022/04/21 02:57:20;;;;;;;;;11.50;10.50;;;;;11.78;81.72;100509.81;6187178;22;45190;-83
2022/04/21 02:58:52;;;;;;;;;9.00;7.25;;;;;11.75;84.07;100512.72;6215309;22;44788;-82
2022/04/21 03:01:18;;;;;;;;;10.00;10.00;;;;;11.74;82.83;100511.00;6215397;22;45327;-82
2022/04/21 03:03:43;;;;;;;;;11.50;9.75;;;;;11.72;85.43;100512.09;6213114;22;45645;-82
2022/04/21 03:06:12;;;;;;;;;9.00;8.00;;;;;11.69;84.81;100507.84;6211894;22;46882;-83
2022/04/21 03:08:37;;;;;;;;;10.00;10.00;;;;;11.65;85.28;100505.53;6215247;22;45307;-83
2022/04/21 03:11:03;;;;;;;;;10.25;10.25;;;;;11.62;84.94;100503.94;6213884;22;44753;-82
2022/04/21 03:13:28;;;;;;;;;11.75;10.75;;;;;11.62;85.05;100508.44;6215041;22;45284;-82
2022/04/21 03:15:53;;;;;;;;;10.00;7.00;;;;;11.57;84.44;100503.44;6214678;22;45925;-82
2022/04/21 03:18:19;;;;;;;;;12.00;10.50;;;;;11.54;84.65;100498.34;6214039;22;45318;-83
2022/04/21 03:26:17;;;;;;;;;13.50;11.50;;;;;11.46;85.11;100482.09;6214113;22;45267;-83
2022/04/21 03:28:43;;;;;;;;;12.00;9.00;;;;;11.44;85.25;100486.69;6215216;22;45181;-82
2022/04/21 03:31:08;;;;;;;;;10.75;10.75;;;;;11.44;83.77;100495.53;6217095;22;44742;-82
2022/04/21 03:33:34;;;;;;;;;10.00;9.00;;;;;11.42;84.34;100483.31;6199312;22;44707;-82
2022/04/21 03:35:59;;;;;;;;;9.50;8.00;;;;;11.42;85.49;100483.31;6223398;22;45294;-82
2022/04/21 03:38:25;;;;;;;;;9.00;9.00;;;;;11.39;86.62;100492.34;6218573;22;44729;-82
2022/04/21 03:40:50;;;;;;;;;14.25;13.00;;;;;11.37;86.50;100488.13;6214079;22;45232;-82
2022/04/21 03:43:15;;;;;;;;;9.00;7.25;;;;;11.33;86.98;100482.19;6213771;22;45251;-81
2022/04/21 03:45:41;;;;;;;;;14.50;14.00;;;;;11.31;84.48;100490.28;6213294;22;45160;-82
2022/04/21 03:48:06;;;;;;;;;15.00;12.00;;;;;11.29;86.89;100488.69;6212666;22;45391;-82
2022/04/21 03:50:34;;;;;;;;;16.33;14.00;;;;;11.26;84.74;100494.22;6186302;22;44732;-80
2022/04/21 03:53:00;;;;;;;;;9.25;9.25;;;;;11.22;86.89;100493.63;6213306;22;44823;-82
2022/04/21 03:55:25;;;;;;;;;13.00;11.50;;;;;11.20;87.54;100492.88;6212947;22;46127;-82
2022/04/21 03:57:51;;;;;;;;;13.25;12.25;;;;;11.16;88.31;100495.88;6213149;22;45283;-79
2022/04/21 04:00:17;;;;;;;;;14.00;12.00;;;;;11.13;89.32;100493.44;6213747;22;45362;-80
2022/04/21 04:02:42;;;;;;;;;14.50;13.50;;;;;11.11;90.57;100498.84;6213655;22;44948;-82
2022/04/21 04:05:08;;;;;;;;;14.00;14.00;;;;;11.05;88.89;100500.16;6186548;22;46521;-81
2022/04/21 04:13:01;;;;;;;;;13.50;12.00;;;;;10.93;89.32;100495.75;6214741;22;44682;-84
2022/04/21 04:15:27;;;;;;;;;16.75;12.25;;;;;10.93;89.52;100497.56;6188820;22;45430;-82
2022/04/21 04:17:52;;;;;;;;;12.33;12.00;;;;;10.93;86.91;100497.56;6197224;22;45349;-84
2022/04/21 04:20:18;;;;;;;;;16.00;12.75;;;;;10.92;90.83;100494.03;6230332;22;44691;-83
2022/04/21 04:22:43;;;;;;;;;8.00;8.00;;;;;10.93;89.92;100497.56;6224962;22;44892;-84
2022/04/21 04:25:09;;;;;;;;;8.50;8.00;;;;;10.92;88.47;100496.69;6192920;22;46647;-84
2022/04/21 04:27:36;;;;;;;;;13.00;13.00;;;;;10.92;88.88;100498.50;6216064;22;45414;-84
2022/04/21 04:30:06;;;;;;;;;12.50;11.50;;;;;10.91;91.11;100496.81;6191646;22;45168;-85
2022/04/21 04:32:31;;;;;;;;;13.00;11.33;;;;;10.88;88.77;100500.53;6196893;22;44956;-85
2022/04/21 04:34:56;;;;;;;;;10.00;10.00;;;;;10.86;91.72;100494.47;6225465;22;45110;-82
2022/04/21 04:37:22;;;;;;;;;12.75;12.00;;;;;10.86;91.36;100504.25;6195244;22;44826;-85
2022/04/21 04:39:47;;;;;;;;;15.25;14.25;;;;;10.82;92.03;100504.47;6220398;22;44967;-83
2022/04/21 04:42:21;;;;;;;;;10.00;10.00;;;;;10.82;90.99;100508.94;6215335;22;44922;-84
2022/04/21 04:44:48;;;;;;;;;12.75;12.25;;;;;10.82;91.60;100508.94;6211947;22;46458;-85
2022/04/21 04:47:14;;;;;;;;;14.75;12.75;;;;;10.81;91.32;100516.06;6186517;22;45477;-83
2022/04/21 04:49:40;;;;;;;;;13.25;12.75;;;;;10.80;93.09;100510.88;6215353;22;44700;-84
2022/04/21 04:52:06;;;;;;;;;10.50;10.50;;;;;10.80;89.86;100510.88;6214601;22;45216;-83
2022/04/21 04:54:32;;;;;;;;;7.67;5.67;;;;;10.80;91.82;100521.50;6188496;22;46485;-85
2022/04/21 04:56:57;;;;;;;;;12.33;10.33;;;;;10.80;93.12;100514.38;6214868;22;45136;-85
2022/04/21 04:59:24;;;;;;;;;14.00;14.00;;;;;10.82;93.55;100517.75;6219035;22;45085;-84
2022/04/21 05:01:49;;;;;;;;;16.25;12.00;;;;;10.86;92.62;100512.22;6224963;22;44671;-84
2022/04/21 05:04:17;;;;;;;;;13.50;11.75;;;;;10.90;92.07;100503.94;6198724;22;46407;-84
2022/04/21 05:06:44;;;;;;;;;16.00;14.00;;;;;10.95;90.66;100515.06;6217224;22;44663;-85
2022/04/21 05:09:11;;;;;;;;;14.67;11.33;;;;;11.02;91.77;100513.69;6190698;22;44856;-85
2022/04/21 05:11:38;;;;;;;;;12.00;12.00;;;;;11.11;90.51;100519.28;6219443;22;44706;-85
2022/04/21 05:14:04;;;;;;;;;17.00;12.00;;;;;11.23;91.03;100519.25;6188217;22;47017;-85
2022/04/21 05:16:30;;;;;;;;;11.25;9.75;;;;;11.36;90.07;100518.31;6187580;22;45184;-84
2022/04/21 05:18:57;;;;;;;;;12.75;12.75;;;;;11.47;90.62;100516.59;6215032;22;44786;-85
2022/04/21 05:21:25;;;;;;;;;16.25;12.50;;;;;11.58;88.63;100519.28;6186705;22;45383;-84
2022/04/21 05:23:57;;;;;;;;;13.50;13.50;;;;;11.68;87.67;100526.59;6187062;22;46706;-86
2022/04/21 05:26:23;;;;;;;;;11.75;11.75;;;;;11.82;88.32;100519.28;6188029;22;45401;-85
2022/04/21 05:28:49;;;;;;;;;18.00;14.00;;;;;11.96;86.46;100520.06;6216280;22;44714;-84
2022/04/21 05:31:16;;;;;;;;;12.00;9.00;;;;;12.09;86.33;100524.34;6216447;22;45248;-86
2022/04/21 05:33:42;;;;;;;;;13.00;10.25;;;;;12.19;85.40;100531.63;6190905;22;45200;-86
2022/04/21 05:36:09;;;;;;;;;14.75;12.25;;;;;12.27;85.46;100524.72;6190638;22;45209;-86
2022/04/21 05:38:34;;;;;;;;;15.25;14.50;;;;;12.29;83.98;100525.47;6219834;22;45320;-85
2022/04/21 05:41:01;;;;;;;;;16.75;14.75;;;;;12.40;84.22;100526.44;6195446;22;44824;-83
2022/04/21 05:43:42;;;;;;;;;15.75;14.25;;;;;12.46;84.85;100515.31;6196851;22;46912;-86
2022/04/21 05:46:09;;;;;;;;;15.00;14.00;;;;;12.52;84.79;100520.13;6221554;22;45335;-85
2022/04/21 05:48:35;;;;;;;;;16.25;14.50;;;;;12.56;85.10;100506.44;6192919;22;44866;-86
2022/04/21 05:51:01;;;;;;;;;13.25;12.25;;;;;12.58;84.30;100522.34;6187788;22;44846;-86
2022/04/21 05:53:27;;;;;;;;;10.50;9.50;;;;;12.56;84.73;100511.78;6214302;22;45243;-85
2022/04/21 05:55:53;;;;;;;;;14.00;12.75;;;;;12.55;84.63;100518.09;6186015;22;45244;-85
2022/04/21 05:58:20;;;;;;;;;12.25;12.00;;;;;12.66;85.05;100513.72;6189033;22;45339;-86
2022/04/21 06:00:46;;;;;;;;;15.00;14.50;;;;;12.72;84.88;100513.25;6165690;22;45341;-86
2022/04/21 06:03:12;;;;;;;;;10.75;9.75;;;;;12.69;84.32;100502.84;6189629;22;45759;-85
2022/04/21 06:05:39;;;;;;;;;19.75;14.50;;;;;12.69;84.76;100500.16;6187255;22;44687;-86
2022/04/21 06:08:06;;;;;;;;;12.00;12.00;;;;;12.73;85.15;100501.63;6214190;22;44686;-85
2022/04/21 06:10:35;;;;;;;;;14.50;12.75;;;;;12.72;84.90;100499.94;6188153;22;44846;-85
2022/04/21 06:13:02;;;;;;;;;15.50;12.25;;;;;12.68;85.06;100495.81;6188383;22;46762;-86
2022/04/21 06:15:31;;;;;;;;;12.75;12.75;;;;;12.72;85.33;100499.94;6188606;22;44644;-86
2022/04/21 06:17:58;;;;;;;;;12.00;12.00;;;;;12.79;85.31;100499.31;6216781;22;45421;-85
2022/04/21 06:20:23;;;;;;;;;17.00;13.50;;;;;12.93;85.43;100500.03;6190507;22;45327;-84
2022/04/21 06:22:49;;;;;;;;;9.50;9.50;;;;;13.02;83.73;100502.78;6219339;22;45252;-85
2022/04/21 06:25:14;;;;;;;;;16.00;12.50;;;;;12.99;83.27;100511.03;6215077;22;45261;-84
2022/04/21 06:27:39;;;;;;;;;13.75;11.50;;;;;13.04;84.55;100513.31;6221775;22;45142;-85
2022/04/21 06:30:05;;;;;;;;;11.25;11.25;;;;;13.10;83.90;100505.69;6224920;22;44877;-84
2022/04/21 06:32:31;;;;;;;;;16.50;13.00;;;;;13.17;85.31;100508.69;6223513;22;45109;-86
2022/04/21 06:34:57;;;;;;;;;12.25;12.25;;;;;13.15;83.72;100515.13;6195818;22;45271;-86
2022/04/21 06:37:23;;;;;;;;;14.50;12.00;;;;;13.22;83.89;100506.53;6224368;22;45360;-86
2022/04/21 06:39:49;;;;;;;;;11.50;11.50;;;;;13.32;83.75;100501.28;6227261;22;45160;-85
2022/04/21 06:42:14;;;;;;;;;11.00;9.25;;;;;13.31;83.21;100504.94;6232160;22;45175;-85
2022/04/21 06:50:09;;;;;;;;;13.25;9.50;;;;;13.62;81.67;100500.56;6233750;22;44725;-85
2022/04/21 06:52:34;;;;;;;;;13.50;10.00;;;;;13.67;82.21;100503.69;6200365;22;47134;-85
2022/04/21 06:55:00;;;;;;;;;13.25;13.25;;;;;13.79;82.07;100502.69;6225123;22;44713;-86
2022/04/21 06:57:25;;;;;;;;;11.25;11.25;;;;;13.81;81.28;100497.19;6227608;22;44984;-87
2022/04/21 06:59:50;;;;;;;;;16.25;12.50;;;;;13.87;80.75;100492.19;6201917;22;45467;-85
2022/04/21 07:02:16;;;;;;;;;14.50;13.00;;;;;13.98;81.21;100485.09;6224993;22;44950;-86
2022/04/21 07:04:42;;;;;;;;;10.75;9.00;;;;;13.82;80.78;100491.72;6217997;22;45304;-85
2022/04/21 07:07:07;;;;;;;;;12.50;11.50;;;;;13.70;82.45;100486.59;6217657;22;45280;-84
2022/04/21 07:09:33;;;;;;;;;16.00;10.00;;;;;13.71;82.37;100502.47;6220016;22;45362;-85
2022/04/21 07:11:59;;;;;;;;;12.50;12.50;;;;;13.61;83.03;100486.38;6220924;22;46113;-85
2022/04/21 07:14:24;;;;;;;;;12.00;12.00;;;;;13.56;82.43;100491.25;6193159;22;45162;-84
2022/04/21 07:16:49;;;;;;;;;15.75;13.50;;;;;13.69;83.69;100482.22;6219169;22;45104;-86
2022/04/21 07:19:15;;;;;;;;;6.00;6.00;;;;;13.74;81.95;100478.19;6220040;22;44741;-84
2022/04/21 07:21:40;;;;;;;;;15.00;14.00;;;;;13.60;83.48;100484.69;6219812;22;45219;-85
2022/04/21 07:24:06;;;;;;;;;19.75;19.75;;;;;13.55;82.06;100486.91;6218762;22;45366;-86
2022/04/21 07:26:31;;;;;;;;;17.25;12.75;;;;;13.50;83.29;100480.25;6194036;22;44883;-86
2022/04/21 07:28:57;;;;;;;;;15.75;15.75;;;;;13.42;85.06;100477.38;6222960;22;45148;-84
2022/04/21 07:31:22;;;;;;;;;13.75;9.00;;;;;13.50;85.46;100477.59;6193027;22;46708;-85
2022/04/21 07:33:48;;;;;;;;;11.75;11.75;;;;;13.51;84.21;100482.78;6220525;22;44718;-85
2022/04/21 07:36:13;;;;;;;;;17.00;15.00;;;;;13.63;86.35;100479.09;6191614;22;45231;-85
2022/04/21 07:38:38;;;;;;;;;13.50;12.50;;;;;13.67;84.22;100482.34;6217479;22;45337;-86
2022/04/21 07:41:04;;;;;;;;;17.50;15.00;;;;;13.77;85.84;100482.41;6212919;22;46469;-84
2022/04/21 07:43:32;;;;;;;;;15.50;15.50;;;;;13.98;85.24;100479.75;6216478;22;44697;-85
2022/04/21 07:45:57;;;;;;;;;18.75;14.50;;;;;14.10;83.72;100481.38;6217875;22;45282;-84
2022/04/21 07:48:23;;;;;;;;;14.25;14.25;;;;;14.20;84.04;100476.09;6190935;22;44798;-86
2022/04/21 07:50:49;;;;;;;;;11.50;9.50;;;;;14.33;82.26;100472.22;6193912;22;46712;-86
2022/04/21 07:53:15;;;;;;;;;10.00;10.00;;;;;14.28;83.02;100474.44;6194964;22;44735;-85
2022/04/21 07:55:42;;;;;;;;;16.75;15.25;;;;;14.37;82.61;100479.00;6218565;22;45352;-85
2022/04/21 07:58:08;;;;;;;;;15.00;12.25;;;;;14.48;82.55;100475.41;6193162;22;45506;-85
2022/04/21 08:00:36;;;;;;;;;14.75;13.50;;;;;14.54;82.94;100474.88;6191804;22;45000;-86
2022/04/21 08:03:03;;;;;;;;;7.75;6.50;;;;;14.47;82.51;100487.06;6221695;22;44846;-86
2022/04/21 08:05:28;;;;;;;;;11.00;8.25;;;;;14.52;83.16;100479.50;6188176;22;44841;-86
2022/04/21 08:07:54;;;;;;;;;13.50;13.50;;;;;14.47;82.32;100481.72;6188974;22;44893;-85
2022/04/21 08:10:20;;;;;;;;;12.00;11.50;;;;;14.37;81.01;100483.50;6193291;22;46620;-85
2022/04/21 08:12:48;;;;;;;;;20.50;17.00;;;;;14.29;82.81;100483.31;6195613;22;45427;-86
2022/04/21 08:15:30;;;;;;;;;19.50;16.25;;;;;14.36;85.20;100477.31;6195548;22;45247;-85
2022/04/21 08:18:00;;;;;;;;;16.25;13.25;;;;;14.57;84.09;100477.28;6222349;22;44733;-85
2022/04/21 08:20:28;;;;;;;;;10.25;8.25;;;;;14.62;82.06;100491.09;6191902;22;46099;-85
2022/04/21 08:22:54;;;;;;;;;17.75;14.50;;;;;14.69;81.81;100494.06;6162679;22;45373;-86
2022/04/21 08:33:33;;;;;;;;;13.00;10.25;;;;;14.98;80.09;100483.44;6219015;22;44735;-85
2022/04/21 08:35:59;;;;;;;;;13.50;12.75;;;;;14.99;80.59;100485.16;6214446;22;45287;-85
2022/04/21 08:38:28;;;;;;;;;17.00;14.25;;;;;15.06;80.27;100480.09;6215181;22;45313;-83
2022/04/21 08:40:55;;;;;;;;;15.50;12.00;;;;;15.08;81.57;100486.16;6191654;22;45271;-84
2022/04/21 08:43:23;;;;;;;;;13.00;12.00;;;;;15.25;80.97;100477.44;6218230;22;45261;-83
2022/04/21 08:45:49;;;;;;;;;18.00;15.00;;;;;15.37;80.33;100476.31;6219016;22;45403;-83
2022/04/21 08:48:18;;;;;;;;;15.25;13.00;;;;;15.55;80.75;100472.97;6190018;22;45335;-84
2022/04/21 08:50:44;;;;;;;;;13.25;11.50;;;;;15.68;79.68;100477.06;6191395;22;46916;-83
2022/04/21 08:53:13;;;;;;;;;15.75;11.50;;;;;15.74;79.26;100469.47;6195176;22;45212;-85
2022/04/21 08:55:39;;;;;;;;;13.75;12.75;;;;;15.68;78.38;100474.41;6222598;22;45400;-84
2022/04/21 08:58:04;;;;;;;;;18.50;13.50;;;;;15.60;78.92;100476.06;6191542;22;45196;-86
2022/04/21 09:00:31;;;;;;;;;15.25;10.25;;;;;15.57;80.12;100476.31;6191986;22;45926;-86
2022/04/21 09:03:00;;;;;;;;;14.00;12.25;;;;;15.52;80.79;100478.59;6189203;22;44684;-85
2022/04/21 09:05:30;;;;;;;;;16.00;14.50;;;;;15.55;80.06;100491.69;6191085;22;44719;-86
2022/04/21 09:07:57;;;;;;;;;16.00;14.00;;;;;15.65;80.61;100476.50;6199467;22;44758;-85
2022/04/21 09:10:24;;;;;;;;;14.75;12.25;;;;;15.93;79.76;100477.47;6225906;22;45067;-84
2022/04/21 09:12:58;;;;;;;;;9.00;9.00;;;;;16.02;78.86;100481.97;6220716;22;44851;-85
2022/04/21 09:15:32;;;;;;;;;17.00;14.00;;;;;16.08;78.95;100475.19;6219784;22;45173;-86
2022/04/21 09:18:02;;;;;;;;;17.25;14.25;;;;;16.05;77.11;100483.50;6217269;22;45467;-86
2022/04/21 09:20:33;;;;;;;;;13.50;13.25;;;;;16.05;77.78;100470.97;6216471;22;45114;-85
2022/04/21 09:23:00;;;;;;;;;15.00;12.60;;;;;16.25;78.50;100465.56;6192620;22;44708;-85
2022/04/21 09:25:32;;;;;;;;;12.60;12.60;;;;;16.43;77.16;100472.66;6221310;22;45206;-85
2022/04/21 09:27:59;;;;;;;;;11.50;10.00;;;;;16.41;75.67;100463.09;6192204;22;44746;-85
2022/04/21 09:30:25;;;;;;;;;12.50;8.50;;;;;16.30;72.38;100466.81;6186826;22;45216;-85
2022/04/21 09:32:56;;;;;;;;;16.60;13.00;;;;;16.46;72.87;100463.50;6214227;22;45247;-84
2022/04/21 09:35:24;;;;;;;;;15.00;14.25;;;;;16.70;74.60;100460.28;6187260;22;45430;-84
2022/04/21 09:37:51;;;;;;;;;18.25;15.00;;;;;16.77;71.54;100457.88;6187540;22;45197;-84
2022/04/21 09:40:19;;;;;;;;;14.50;13.75;;;;;16.87;73.05;100458.66;6215476;22;45342;-86
2022/04/21 09:42:54;;;;;;;;;13.75;13.75;;;;;17.06;71.86;100453.16;6217068;22;44663;-86
2022/04/21 09:48:28;;;;;;;;;17.50;17.50;;;;;17.18;67.28;100453.81;6229970;22;44730;-85
2022/04/21 09:50:53;;;;;;;;;13.60;12.60;;;;;17.18;69.96;100448.44;6225954;22;45325;-85
2022/04/21 09:53:24;;;;;;;;;17.00;15.50;;;;;17.11;69.77;100447.34;6199133;22;44770;-86
2022/04/21 09:55:51;;;;;;;;;13.50;11.25;;;;;17.30;70.11;100440.97;6225299;22;45363;-85
2022/04/21 09:58:17;;;;;;;;;15.25;13.75;;;;;17.40;66.42;100434.53;6198177;22;44842;-85
2022/04/21 10:00:44;;;;;;;;;16.50;13.00;;;;;17.50;63.30;100438.97;6222885;22;45117;-85
2022/04/21 10:03:11;;;;;;;;;12.60;12.00;;;;;17.60;61.77;100435.22;6219375;22;45279;-86
2022/04/21 10:05:41;;;;;;;;;13.75;13.75;;;;;17.68;60.59;100431.75;6193054;22;44793;-85
2022/04/21 10:08:08;;;;;;;;;17.00;15.25;;;;;17.71;59.78;100426.91;6220326;22;45266;-87
2022/04/21 10:10:37;;;;;;;;;13.25;12.50;;;;;17.86;60.47;100426.38;6193147;22;45527;-86
2022/04/21 10:13:05;;;;;;;;;13.80;10.20;;;;;18.00;60.29;100425.81;6218880;22;44670;-87
2022/04/21 10:15:30;;;;;;;;;15.60;14.00;;;;;18.08;59.09;100425.84;6191529;22;45256;-86
2022/04/21 10:17:56;;;;;;;;;13.50;11.50;;;;;18.11;57.30;100425.53;6217775;22;44889;-86
2022/04/21 10:20:28;;;;;;;;;15.75;13.75;;;;;18.23;58.88;100407.28;6189255;22;47826;-86
2022/04/21 10:22:55;;;;;;;;;14.60;14.20;;;;;18.27;57.15;100416.69;6188750;22;44684;-86
2022/04/21 10:25:34;;;;;;;;;15.50;12.75;;;;;18.35;57.03;100407.84;6215746;22;45273;-86
2022/04/21 10:28:00;;;;;;;;;9.50;9.25;;;;;18.32;58.37;100403.63;6191515;22;45314;-85
2022/04/21 10:30:29;;;;;;;;;12.50;10.50;;;;;18.42;60.60;100400.81;6220567;22;44955;-87
2022/04/21 10:32:56;;;;;;;;;14.20;11.20;;;;;18.57;62.91;100399.19;6229147;22;44784;-86
2022/04/21 10:35:27;;;;;;;;;11.20;11.20;;;;;18.61;56.43;100388.94;6202086;22;44623;-85
2022/04/21 10:38:14;;;;;;;;;15.75;15.00;;;;;18.57;57.41;100401.06;6195588;22;45208;-84
2022/04/21 10:41:10;;;;;;;;;13.20;10.60;;;;;18.40;56.98;100387.53;6196418;22;45282;-86
2022/04/21 10:43:48;;;;;;;;;16.00;12.00;;;;;18.41;56.81;100388.38;6216721;22;44685;-86
2022/04/21 10:46:29;;;;;;;;;12.40;11.40;;;;;18.28;56.54;100382.63;6189529;22;45197;-86
2022/04/21 10:48:55;;;;;;;;;17.50;13.75;;;;;18.26;56.23;100390.81;6214540;22;45405;-87
2022/04/21 10:57:11;;;;;;;;;14.25;14.25;;;;;18.30;56.92;100389.50;6222361;22;45260;-85
2022/04/21 10:57:29;;;;;;;;;15.80;13.00;;;;;18.66;54.25;100386.59;6218539;22;45389;-87
2022/04/21 11:00:01;;;;;;;;;16.25;13.50;;;;;18.67;52.91;100391.00;6227970;22;44867;-85
2022/04/21 11:02:45;;;;;;;;;16.00;15.50;;;;;18.74;50.43;100387.50;6202432;22;47114;-85
2022/04/21 11:05:23;;;;;;;;;13.60;12.60;;;;;18.81;51.53;100376.94;6182598;22;45198;-86
2022/04/21 11:07:56;;;;;;;;;16.40;13.80;;;;;18.96;53.70;100380.66;6217122;22;44781;-87
2022/04/21 11:10:59;;;;;;;;;14.75;13.50;;;;;19.16;53.39;100369.56;6214711;22;45394;-85
2022/04/21 11:13:52;;;;;;;;;17.50;15.50;;;;;19.21;51.97;100370.75;6120995;23;45391;-85
2022/04/21 11:16:41;;;;;;;;;21.00;15.60;;;;;19.31;48.76;100377.84;6097314;23;44599;-85
2022/04/21 11:19:40;;;;;;;;;16.40;13.80;;;;;19.40;47.31;100377.66;6121856;23;45479;-82
2022/04/21 11:22:10;;;;;;;;;16.50;10.50;;;;;19.49;45.96;100363.19;6061854;23;45202;-84
2022/04/21 11:25:11;;;;;;;;;6.20;4.80;;;;;19.46;48.50;100355.44;6061996;23;46267;-84
2022/04/21 11:27:41;;;;;;;;;11.60;11.00;;;;;19.31;44.09;100356.28;5969666;23;45252;-84
2022/04/21 11:30:14;;;;;;;;;19.00;11.60;;;;;19.26;42.32;100348.72;5978463;23;45236;-85
2022/04/21 11:32:48;;;;;;;;;15.75;11.25;;;;;19.34;43.34;100354.09;5988584;23;44859;-84
2022/04/21 11:35:16;;;;;;;;;12.80;11.40;;;;;19.45;42.81;100352.91;5988609;23;45056;-84
2022/04/21 11:37:54;;;;;;;;;16.20;13.20;;;;;19.59;42.09;100341.44;5978586;23;44761;-84
2022/04/21 11:40:20;;;;;;;;;16.80;13.80;;;;;19.72;40.52;100346.31;5980268;23;44924;-83
2022/04/21 11:42:50;;;;;;;;;14.25;11.50;;;;;19.71;39.97;100350.03;5979170;23;45316;-85
2022/04/21 11:45:19;;;;;;;;;12.60;12.40;;;;;19.90;40.48;100349.66;5978542;23;47000;-84
2022/04/21 11:47:44;;;;;;;;;11.20;11.20;;;;;19.99;39.29;100342.38;5978933;23;44736;-82
2022/04/21 11:50:13;;;;;;;;;13.50;12.50;;;;;20.12;37.51;100344.53;5940415;23;44859;-86
2022/04/21 11:52:42;;;;;;;;;13.50;11.50;;;;;20.25;42.00;100331.31;5946200;23;44847;-83
2022/04/21 11:55:09;;;;;;;;;6.75;6.75;;;;;20.16;36.95;100333.22;5952820;23;45474;-84
2022/04/21 11:57:49;;;;;;;;;12.20;12.20;;;;;20.00;36.83;100333.28;5997240;23;44712;-84